createdAt,value
2023-01-09T00:00:44.420Z,10.85
2023-01-09T00:05:46.223Z,11.27
2023-01-09T00:10:49.532Z,10.32
2023-01-09T00:15:51.229Z,11.10
2023-01-09T00:20:52.910Z,10.23
2023-01-09T00:26:09.643Z,11.43
2023-01-09T00:31:12.392Z,10.95
2023-01-09T00:36:14.077Z,10.35
2023-01-09T00:41:19.722Z,10.30
2023-01-09T00:46:24.604Z,10.88
2023-01-09T00:51:27.861Z,11.63
2023-01-09T00:56:29.653Z,11.07
2023-01-09T01:01:31.410Z,11.88
2023-01-09T01:06:52.778Z,11.48
2023-01-09T01:11:54.379Z,11.10
2023-01-09T01:16:56.040Z,10.55
2023-01-09T01:21:57.764Z,11.20
2023-01-09T01:26:59.403Z,11.27
2023-01-09T01:32:01.248Z,11.68
2023-01-09T01:37:02.968Z,11.73
2023-01-09T01:42:05.581Z,10.55
2023-01-09T01:47:07.430Z,11.10
2023-01-09T01:52:09.092Z,10.82
2023-01-09T01:57:10.759Z,10.75
2023-01-09T02:02:12.532Z,9.57
2023-01-09T02:07:14.309Z,9.75
2023-01-09T02:12:25.927Z,10.60
2023-01-09T02:17:35.379Z,9.70
2023-01-09T02:22:43.711Z,9.38
2023-01-09T02:27:54.408Z,10.30
2023-01-09T02:33:00.630Z,10.57
2023-01-09T02:38:40.795Z,9.73
2023-01-09T02:43:42.482Z,9.88
2023-01-09T02:48:45.603Z,8.88
2023-01-09T02:53:50.520Z,9.13
2023-01-09T02:59:29.869Z,9.25
2023-01-09T03:05:05.540Z,11.30
2023-01-09T03:10:20.799Z,10.60
2023-01-09T03:15:26.482Z,10.35
2023-01-09T03:20:29.972Z,11.15
2023-01-09T03:25:32.073Z,12.10
2023-01-09T03:30:35.428Z,12.95
2023-01-09T03:35:37.587Z,12.00
2023-01-09T03:40:40.857Z,12.95
2023-01-09T03:45:42.915Z,12.75
2023-01-09T03:50:46.070Z,13.85
2023-01-09T03:55:50.082Z,12.45
2023-01-09T04:00:52.528Z,12.00
2023-01-09T04:05:54.582Z,12.90
2023-01-09T04:10:56.599Z,12.32
2023-01-09T04:15:58.344Z,12.73
2023-01-09T04:20:59.966Z,13.50
2023-01-09T04:26:01.574Z,11.73
2023-01-09T04:31:03.177Z,12.52
2023-01-09T04:36:05.722Z,11.15
2023-01-09T04:41:07.368Z,12.00
2023-01-09T04:46:09.014Z,12.52
2023-01-09T04:51:10.722Z,11.77
2023-01-09T04:56:12.499Z,11.55
2023-01-09T05:01:14.371Z,11.63
2023-01-09T05:06:16.144Z,11.40
2023-01-09T05:11:17.806Z,11.82
2023-01-09T05:16:19.956Z,12.20
2023-01-09T05:21:21.547Z,11.65
2023-01-09T05:26:24.221Z,11.60
2023-01-09T05:31:27.104Z,11.18
2023-01-09T05:36:29.361Z,11.25
2023-01-09T05:41:31.128Z,10.70
2023-01-09T05:46:32.858Z,10.65
2023-01-09T05:51:35.157Z,10.77
2023-01-09T05:56:36.959Z,11.45
2023-01-09T06:01:38.583Z,10.18
2023-01-09T06:06:40.984Z,10.65
2023-01-09T06:11:42.644Z,9.90
2023-01-09T06:16:44.293Z,10.63
2023-01-09T06:21:45.936Z,9.68
2023-01-09T06:26:47.547Z,9.57
2023-01-09T06:31:49.218Z,11.18
2023-01-09T06:36:50.849Z,9.88
2023-01-09T06:41:52.442Z,9.93
2023-01-09T06:46:54.049Z,9.35
2023-01-09T06:51:55.681Z,9.20
2023-01-09T06:56:57.313Z,7.80
2023-01-09T07:01:59.026Z,7.53
2023-01-09T07:07:00.735Z,7.63
2023-01-09T07:12:02.489Z,7.32
2023-01-09T07:17:04.099Z,7.93
2023-01-09T07:22:05.698Z,8.20
2023-01-09T07:27:07.360Z,8.65
2023-01-09T07:32:09.016Z,8.38
2023-01-09T07:37:10.754Z,8.88
2023-01-09T07:42:12.364Z,8.85
2023-01-09T07:47:14.015Z,8.05
2023-01-09T07:52:16.011Z,8.77
2023-01-09T07:57:17.648Z,9.27
2023-01-09T08:02:19.451Z,9.02
2023-01-09T08:07:21.130Z,9.73
2023-01-09T08:12:22.723Z,9.32
2023-01-09T08:17:26.440Z,9.38
2023-01-09T08:22:28.210Z,8.55
2023-01-09T08:27:29.972Z,8.32
2023-01-09T08:32:31.667Z,9.57
2023-01-09T08:37:33.700Z,8.10
2023-01-09T08:42:54.414Z,7.53
2023-01-09T08:47:56.565Z,7.93
2023-01-09T08:52:58.182Z,7.25
2023-01-09T08:57:59.830Z,8.07
2023-01-09T09:03:01.600Z,7.45
2023-01-09T09:08:04.146Z,8.02
2023-01-09T09:13:05.913Z,6.72
2023-01-09T09:18:07.725Z,5.90
2023-01-09T09:23:09.426Z,1.50
2023-01-09T09:28:11.028Z,1.40
2023-01-09T09:33:12.687Z,1.48
2023-01-09T09:38:15.156Z,0.90
2023-01-09T09:43:59.844Z,1.05
2023-01-09T09:49:25.592Z,1.20
2023-01-09T09:54:38.479Z,0.90
2023-01-09T10:04:48.153Z,1.42
2023-01-09T10:09:59.871Z,1.08
2023-01-09T10:15:09.671Z,1.15
2023-01-09T10:20:39.445Z,1.00
2023-01-09T10:25:42.737Z,1.33
2023-01-09T10:30:48.298Z,0.85
2023-01-09T10:36:11.333Z,1.00
2023-01-09T10:41:29.378Z,0.90
2023-01-09T10:46:53.758Z,1.23
2023-01-09T10:52:15.946Z,0.45
2023-01-09T10:57:34.280Z,0.65
2023-01-09T11:02:36.113Z,1.85
2023-01-09T11:07:39.332Z,0.40
2023-01-09T11:12:41.228Z,1.17
2023-01-09T11:17:43.756Z,0.90
2023-01-09T11:22:50.432Z,0.50
2023-01-09T11:33:21.264Z,0.43
2023-01-09T11:38:23.062Z,0.70
2023-01-09T11:43:35.140Z,0.45
2023-01-09T11:48:41.159Z,0.28
2023-01-09T11:53:56.158Z,0.30
2023-01-09T11:58:59.394Z,0.68
2023-01-09T12:04:25.274Z,0.25
2023-01-09T12:10:04.416Z,0.32
2023-01-09T12:15:24.908Z,0.52
2023-01-09T12:20:45.047Z,0.43
2023-01-09T12:26:18.368Z,0.77
2023-01-09T12:31:41.705Z,0.32
2023-01-09T12:37:25.218Z,0.40
2023-01-09T12:42:59.123Z,0.40
2023-01-09T12:48:09.936Z,0.30
2023-01-09T12:53:36.865Z,0.30
2023-01-09T12:58:44.970Z,0.35
2023-01-09T13:03:52.880Z,0.30
2023-01-09T13:09:22.872Z,0.25
2023-01-09T13:14:48.192Z,0.50
2023-01-09T13:19:50.806Z,0.50
2023-01-09T13:25:17.300Z,0.47
2023-01-09T13:30:36.660Z,0.40
2023-01-09T13:35:55.805Z,0.20
2023-01-09T13:46:52.254Z,0.63
2023-01-09T13:52:00.107Z,0.60
2023-01-09T13:57:20.109Z,0.40
2023-01-09T14:02:33.754Z,0.45
2023-01-09T14:07:40.145Z,0.65
2023-01-09T14:12:42.167Z,0.45
2023-01-09T14:17:43.796Z,0.30
2023-01-09T14:22:56.058Z,0.40
2023-01-09T14:27:58.190Z,0.50
2023-01-09T14:33:02.815Z,0.38
2023-01-09T14:38:26.190Z,0.50
2023-01-09T14:44:03.907Z,0.47
2023-01-09T14:54:32.998Z,0.40
2023-01-09T14:59:34.708Z,0.50
2023-01-09T15:04:38.797Z,0.45
2023-01-09T15:09:46.215Z,1.83
2023-01-09T15:14:51.720Z,0.52
2023-01-09T15:19:53.913Z,0.98
2023-01-09T15:24:55.917Z,0.70
2023-01-09T15:30:16.738Z,0.40
2023-01-09T15:35:19.876Z,0.35
2023-01-09T15:40:26.700Z,0.63
2023-01-09T15:45:39.367Z,0.52
2023-01-09T15:50:41.680Z,0.50
2023-01-09T15:55:43.566Z,0.68
2023-01-09T16:00:45.765Z,0.85
2023-01-09T16:05:57.929Z,0.60
2023-01-09T16:11:05.527Z,0.85
2023-01-09T16:16:07.720Z,1.27
2023-01-09T16:21:12.559Z,0.75
2023-01-09T16:26:21.120Z,0.90
2023-01-09T16:31:27.542Z,0.88
2023-01-09T16:36:29.264Z,1.15
2023-01-09T16:41:49.683Z,0.88
2023-01-09T16:46:51.337Z,0.90
2023-01-09T16:51:53.322Z,0.85
2023-01-09T16:56:55.108Z,1.50
2023-01-09T17:01:56.783Z,1.33
2023-01-09T17:06:58.434Z,1.23
2023-01-09T17:12:00.111Z,1.25
2023-01-09T17:17:02.797Z,1.45
2023-01-09T17:22:04.605Z,1.23
2023-01-09T17:27:24.698Z,0.98
2023-01-09T17:32:26.328Z,1.10
2023-01-09T17:37:28.030Z,0.73
2023-01-09T17:42:30.722Z,0.60
2023-01-09T17:47:33.905Z,1.55
2023-01-09T17:52:35.573Z,1.55
2023-01-09T17:57:37.310Z,2.42
2023-01-09T18:02:39.012Z,1.00
2023-01-09T18:07:40.706Z,2.15
2023-01-09T18:12:42.398Z,1.85
2023-01-09T18:17:44.199Z,2.00
2023-01-09T18:22:45.834Z,1.60
2023-01-09T18:27:47.452Z,2.38
2023-01-09T18:32:49.078Z,1.60
2023-01-09T18:37:50.700Z,1.73
2023-01-09T18:42:52.395Z,1.92
2023-01-09T18:47:53.993Z,1.70
2023-01-09T18:52:55.656Z,2.70
2023-01-09T18:57:57.367Z,1.48
2023-01-09T19:02:59.063Z,1.38
2023-01-09T19:08:00.723Z,1.13
2023-01-09T19:13:02.384Z,1.52
2023-01-09T19:18:04.021Z,1.08
2023-01-09T19:23:05.866Z,0.90
2023-01-09T19:28:07.575Z,0.95
2023-01-09T19:33:11.145Z,0.77
2023-01-09T19:38:12.794Z,1.33
2023-01-09T19:43:25.978Z,1.13
2023-01-09T19:48:28.947Z,0.85
2023-01-09T19:53:31.560Z,1.05
2023-01-09T19:58:33.250Z,0.75
2023-01-09T20:03:35.437Z,0.88
2023-01-09T20:08:37.154Z,1.02
2023-01-09T20:13:39.009Z,1.10
2023-01-09T20:18:40.970Z,0.93
2023-01-09T20:23:42.638Z,0.85
2023-01-09T20:28:44.840Z,1.10
2023-01-09T20:33:47.597Z,0.80
2023-01-09T20:38:49.260Z,0.90
2023-01-09T20:43:59.809Z,0.77
2023-01-09T20:49:06.450Z,0.68
2023-01-09T20:59:20.076Z,1.05
2023-01-09T21:04:21.991Z,0.85
2023-01-09T21:09:25.301Z,1.45
2023-01-09T21:14:26.956Z,0.70
2023-01-09T21:19:28.566Z,0.98
2023-01-09T21:24:30.910Z,1.35
2023-01-09T21:29:32.550Z,0.60
2023-01-09T21:34:34.220Z,0.80
2023-01-09T21:39:36.297Z,0.52
2023-01-09T21:44:56.511Z,0.70
2023-01-09T21:49:58.202Z,0.85
2023-01-09T21:54:59.796Z,0.90
2023-01-09T22:00:01.601Z,0.70
2023-01-09T22:05:13.639Z,0.75
2023-01-09T22:10:15.717Z,0.90
2023-01-09T22:15:17.326Z,0.82
2023-01-09T22:20:19.027Z,0.47
2023-01-09T22:25:22.768Z,0.85
2023-01-09T22:30:24.594Z,1.23
2023-01-09T22:35:26.815Z,1.05
2023-01-09T22:40:28.544Z,0.93
2023-01-09T22:45:30.886Z,0.93
2023-01-09T22:50:32.542Z,0.70
2023-01-09T22:55:34.176Z,1.10
2023-01-09T23:00:35.822Z,0.73
2023-01-09T23:05:37.825Z,1.02
2023-01-09T23:10:39.585Z,1.00
2023-01-09T23:15:41.222Z,1.10
2023-01-09T23:20:50.551Z,0.88
2023-01-09T23:25:56.527Z,0.82
2023-01-09T23:30:58.267Z,1.25
2023-01-09T23:35:59.898Z,0.73
2023-01-09T23:41:01.629Z,6.75
2023-01-09T23:46:03.282Z,1.40
2023-01-09T23:51:07.865Z,1.50
2023-01-09T23:56:09.515Z,1.10
